createdAt,value
2019-05-19T00:00:05.909Z,72.80
2019-05-19T00:02:34.638Z,71.50
2019-05-19T00:05:04.434Z,72.00
2019-05-19T00:07:33.181Z,72.00
2019-05-19T00:10:02.200Z,71.90
2019-05-19T00:12:30.941Z,71.90
2019-05-19T00:14:59.662Z,72.40
2019-05-19T00:17:28.421Z,72.20
2019-05-19T00:19:57.170Z,72.20
2019-05-19T00:22:25.905Z,72.00
2019-05-19T00:24:54.638Z,72.00
2019-05-19T00:27:23.385Z,71.90
2019-05-19T00:29:52.109Z,71.40
2019-05-19T00:32:20.925Z,72.20
2019-05-19T00:34:49.657Z,72.90
2019-05-19T00:37:18.419Z,72.90
2019-05-19T00:39:47.161Z,72.40
2019-05-19T00:42:15.873Z,72.30
2019-05-19T00:44:44.620Z,73.10
2019-05-19T00:47:13.431Z,73.30
2019-05-19T00:49:42.172Z,73.10
2019-05-19T00:52:10.921Z,72.40
2019-05-19T00:54:39.679Z,71.40
2019-05-19T00:57:09.141Z,71.10
2019-05-19T00:59:39.629Z,72.00
2019-05-19T01:02:08.447Z,72.00
2019-05-19T01:04:37.175Z,72.40
2019-05-19T01:07:05.979Z,72.30
2019-05-19T01:09:34.713Z,72.00
2019-05-19T01:12:03.457Z,72.50
2019-05-19T01:14:32.186Z,73.40
2019-05-19T01:17:00.921Z,71.90
2019-05-19T01:19:29.688Z,72.60
2019-05-19T01:22:00.799Z,72.80
2019-05-19T01:24:29.542Z,72.60
2019-05-19T01:26:58.279Z,72.90
2019-05-19T01:29:27.005Z,73.60
2019-05-19T01:31:55.743Z,73.50
2019-05-19T01:34:24.523Z,73.40
2019-05-19T01:36:53.260Z,73.30
2019-05-19T01:39:22.029Z,73.50
2019-05-19T01:41:50.768Z,73.50
2019-05-19T01:44:19.530Z,74.00
2019-05-19T01:46:48.262Z,74.20
2019-05-19T01:49:16.956Z,74.30
2019-05-19T01:51:45.705Z,74.30
2019-05-19T01:54:16.750Z,74.90
2019-05-19T01:56:44.814Z,75.20
2019-05-19T01:59:13.575Z,75.50
2019-05-19T02:01:42.306Z,75.00
2019-05-19T02:04:11.084Z,75.10
2019-05-19T02:06:39.790Z,75.60
2019-05-19T02:09:08.536Z,75.90
2019-05-19T02:11:37.273Z,75.70
2019-05-19T02:14:06.070Z,75.10
2019-05-19T02:16:34.826Z,75.30
2019-05-19T02:19:03.561Z,76.00
2019-05-19T02:21:32.289Z,75.40
2019-05-19T02:24:01.038Z,75.70
2019-05-19T02:26:29.767Z,75.60
2019-05-19T02:28:58.513Z,75.00
2019-05-19T02:31:27.244Z,75.00
2019-05-19T02:33:55.966Z,75.30
2019-05-19T02:36:24.642Z,76.00
2019-05-19T02:38:53.377Z,76.00
2019-05-19T02:41:24.434Z,76.10
2019-05-19T02:43:54.353Z,76.00
2019-05-19T02:46:24.501Z,76.00
2019-05-19T02:48:54.065Z,75.80
2019-05-19T02:51:24.363Z,76.40
2019-05-19T02:53:54.849Z,75.90
2019-05-19T02:56:25.750Z,75.60
2019-05-19T02:58:56.045Z,76.50
2019-05-19T03:01:24.758Z,76.10
2019-05-19T03:03:53.507Z,75.50
2019-05-19T03:06:22.238Z,75.80
2019-05-19T03:08:50.986Z,75.20
2019-05-19T03:11:19.810Z,75.40
2019-05-19T03:13:48.563Z,76.50
2019-05-19T03:16:17.302Z,77.10
2019-05-19T03:18:46.031Z,76.70
2019-05-19T03:21:14.782Z,76.50
2019-05-19T03:23:43.509Z,75.90
2019-05-19T03:26:12.254Z,76.40
2019-05-19T03:28:41.021Z,77.30
2019-05-19T03:31:11.413Z,76.60
2019-05-19T03:33:44.747Z,76.50
2019-05-19T03:36:12.657Z,77.00
2019-05-19T03:38:41.397Z,77.20
2019-05-19T03:41:10.130Z,77.50
2019-05-19T03:43:38.873Z,76.80
2019-05-19T03:46:07.595Z,76.60
2019-05-19T03:48:36.338Z,76.60
2019-05-19T03:51:05.093Z,77.30
2019-05-19T03:53:33.828Z,77.70
2019-05-19T03:56:02.602Z,76.90
2019-05-19T03:58:31.352Z,76.70
2019-05-19T04:01:00.250Z,76.60
2019-05-19T04:03:28.982Z,77.30
2019-05-19T04:05:57.732Z,78.70
2019-05-19T04:08:26.533Z,78.40
2019-05-19T04:10:55.261Z,78.70
2019-05-19T04:13:23.937Z,79.50
2019-05-19T04:15:52.677Z,79.50
2019-05-19T04:18:21.446Z,78.10
2019-05-19T04:20:50.177Z,77.90
2019-05-19T04:23:18.933Z,77.70
2019-05-19T04:25:47.672Z,78.00
2019-05-19T04:28:16.402Z,77.40
2019-05-19T04:30:45.171Z,77.00
2019-05-19T04:33:13.880Z,77.70
2019-05-19T04:35:42.616Z,78.60
2019-05-19T04:38:11.368Z,77.80
2019-05-19T04:40:40.099Z,77.80
2019-05-19T04:43:08.863Z,77.80
2019-05-19T04:45:37.594Z,77.20
2019-05-19T04:48:09.340Z,77.80
2019-05-19T04:50:36.695Z,78.40
2019-05-19T04:53:05.411Z,76.80
2019-05-19T04:55:34.163Z,76.30
2019-05-19T04:58:02.899Z,76.50
2019-05-19T05:00:31.654Z,77.80
2019-05-19T05:03:00.874Z,77.10
2019-05-19T05:05:29.594Z,76.40
2019-05-19T05:07:58.347Z,76.70
2019-05-19T05:10:27.089Z,77.00
2019-05-19T05:12:55.825Z,76.50
2019-05-19T05:15:24.541Z,76.90
2019-05-19T05:17:53.212Z,77.60
2019-05-19T05:20:21.985Z,78.40
2019-05-19T05:22:50.730Z,79.10
2019-05-19T05:25:19.531Z,78.30
2019-05-19T05:27:48.271Z,78.50
2019-05-19T05:30:17.057Z,78.60
2019-05-19T05:32:45.717Z,76.70
2019-05-19T05:35:15.012Z,77.10
2019-05-19T05:37:43.765Z,76.60
2019-05-19T05:40:12.617Z,77.20
2019-05-19T05:42:41.349Z,77.20
2019-05-19T05:45:10.404Z,77.20
2019-05-19T05:47:39.169Z,77.20
2019-05-19T05:50:08.161Z,78.50
2019-05-19T05:52:38.947Z,78.40
2019-05-19T05:55:07.633Z,78.50
2019-05-19T05:57:39.020Z,78.30
2019-05-19T06:00:09.818Z,79.20
2019-05-19T06:02:38.540Z,77.40
2019-05-19T06:05:07.857Z,76.80
2019-05-19T06:07:36.608Z,77.90
2019-05-19T06:10:07.380Z,77.30
2019-05-19T06:12:36.037Z,78.00
2019-05-19T06:15:05.928Z,77.20
2019-05-19T06:17:34.665Z,77.00
2019-05-19T06:20:04.782Z,76.90
2019-05-19T06:22:33.749Z,77.80
2019-05-19T06:25:02.521Z,77.20
2019-05-19T06:27:31.501Z,77.50
2019-05-19T06:30:00.266Z,77.10
2019-05-19T06:32:30.635Z,78.60
2019-05-19T06:34:59.366Z,78.40
2019-05-19T06:37:28.118Z,77.60
2019-05-19T06:39:56.853Z,77.80
2019-05-19T06:42:25.591Z,77.40
2019-05-19T06:44:54.322Z,76.70
2019-05-19T06:47:23.075Z,77.60
2019-05-19T06:49:51.837Z,77.00
2019-05-19T06:52:20.580Z,77.40
2019-05-19T06:54:49.253Z,76.80
2019-05-19T06:57:17.989Z,76.50
2019-05-19T06:59:46.743Z,77.00
2019-05-19T07:02:15.471Z,77.20
2019-05-19T07:04:47.368Z,77.80
2019-05-19T07:07:16.095Z,79.00
2019-05-19T07:09:57.533Z,78.40
2019-05-19T07:12:15.147Z,78.20
2019-05-19T07:14:43.894Z,77.60
2019-05-19T07:17:12.811Z,77.10
2019-05-19T07:19:41.561Z,77.40
2019-05-19T07:22:10.296Z,77.70
2019-05-19T07:24:39.051Z,79.40
2019-05-19T07:27:07.783Z,80.50
2019-05-19T07:29:36.545Z,79.90
2019-05-19T07:32:05.284Z,79.80
2019-05-19T07:34:34.065Z,79.60
2019-05-19T07:37:02.782Z,80.10
2019-05-19T07:39:31.574Z,81.00
2019-05-19T07:42:00.321Z,81.00
2019-05-19T07:44:29.127Z,81.50
2019-05-19T07:46:57.842Z,83.20
2019-05-19T07:49:26.578Z,83.30
2019-05-19T07:51:55.317Z,83.60
2019-05-19T07:54:24.135Z,83.60
2019-05-19T07:56:53.114Z,85.90
2019-05-19T07:59:21.809Z,85.90
2019-05-19T08:01:50.652Z,85.80
2019-05-19T08:04:19.326Z,85.30
2019-05-19T08:06:48.086Z,84.70
2019-05-19T08:09:16.829Z,83.70
2019-05-19T08:11:45.565Z,83.60
2019-05-19T08:14:14.313Z,84.10
2019-05-19T08:16:42.996Z,83.20
2019-05-19T08:19:11.761Z,81.80
2019-05-19T08:21:40.489Z,81.70
2019-05-19T08:24:09.252Z,80.60
2019-05-19T08:26:37.981Z,80.00
2019-05-19T08:29:06.722Z,79.60
2019-05-19T08:31:35.452Z,78.80
2019-05-19T08:34:04.374Z,79.60
2019-05-19T08:36:33.105Z,78.60
2019-05-19T08:39:01.862Z,77.40
2019-05-19T08:41:30.593Z,77.30
2019-05-19T08:43:59.354Z,77.80
2019-05-19T08:46:28.092Z,77.10
2019-05-19T08:48:58.529Z,77.30
2019-05-19T08:51:27.223Z,77.30
2019-05-19T08:53:56.061Z,76.30
2019-05-19T08:56:24.796Z,75.40
2019-05-19T08:58:53.614Z,75.70
2019-05-19T09:01:22.310Z,75.10
2019-05-19T09:03:51.049Z,75.50
2019-05-19T09:06:19.796Z,75.00
2019-05-19T09:08:48.523Z,76.60
2019-05-19T09:11:17.275Z,77.70
2019-05-19T09:13:46.001Z,77.00
2019-05-19T09:16:14.753Z,76.90
2019-05-19T09:18:43.489Z,75.50
2019-05-19T09:21:12.259Z,76.90
2019-05-19T09:23:41.003Z,76.70
2019-05-19T09:26:09.723Z,75.10
2019-05-19T09:28:38.533Z,74.70
2019-05-19T09:31:07.210Z,76.00
2019-05-19T09:33:35.941Z,75.60
2019-05-19T09:36:04.677Z,75.00
2019-05-19T09:38:33.451Z,75.30
2019-05-19T09:41:05.854Z,74.30
2019-05-19T09:43:34.594Z,74.80
2019-05-19T09:46:03.331Z,74.30
2019-05-19T09:48:32.102Z,73.00
2019-05-19T09:51:00.822Z,72.60
2019-05-19T09:53:29.573Z,71.30
2019-05-19T09:55:58.319Z,70.70
2019-05-19T09:58:27.074Z,70.90
2019-05-19T10:00:55.810Z,71.60
2019-05-19T10:03:24.601Z,71.10
2019-05-19T10:05:53.253Z,70.70
2019-05-19T10:08:27.729Z,70.40
2019-05-19T10:11:17.999Z,70.20
2019-05-19T10:13:46.749Z,69.50
2019-05-19T10:16:15.549Z,68.10
2019-05-19T10:18:44.449Z,67.70
2019-05-19T10:21:13.482Z,67.00
2019-05-19T10:23:42.214Z,68.30
2019-05-19T10:26:11.039Z,67.70
2019-05-19T10:28:39.763Z,67.90
2019-05-19T10:31:08.584Z,68.20
2019-05-19T10:33:37.326Z,67.80
2019-05-19T10:36:06.122Z,67.60
2019-05-19T10:38:34.862Z,68.30
2019-05-19T10:41:03.616Z,67.40
2019-05-19T10:43:32.296Z,68.00
2019-05-19T10:46:01.026Z,69.30
2019-05-19T10:48:29.772Z,68.50
2019-05-19T10:50:58.549Z,67.50
2019-05-19T10:53:27.300Z,68.90
2019-05-19T10:55:56.013Z,68.70
2019-05-19T10:58:24.757Z,67.50
2019-05-19T11:00:53.442Z,67.70
2019-05-19T11:03:22.178Z,68.30
2019-05-19T11:05:50.944Z,68.20
2019-05-19T11:08:19.684Z,67.80
2019-05-19T11:10:48.485Z,67.60
2019-05-19T11:13:17.213Z,66.40
2019-05-19T11:15:46.159Z,65.70
2019-05-19T11:18:14.873Z,64.40
2019-05-19T11:20:45.130Z,64.00
2019-05-19T11:23:13.872Z,64.50
2019-05-19T11:25:51.098Z,65.40
2019-05-19T11:28:13.378Z,66.10
2019-05-19T11:30:42.106Z,65.90
2019-05-19T11:33:10.858Z,64.20
2019-05-19T11:35:39.589Z,63.40
2019-05-19T11:38:08.316Z,63.90
2019-05-19T11:40:37.107Z,64.60
2019-05-19T11:43:05.854Z,65.20
2019-05-19T11:45:34.942Z,65.90
2019-05-19T11:48:03.690Z,66.90
2019-05-19T11:50:33.379Z,66.40
2019-05-19T11:53:02.099Z,63.30
2019-05-19T11:55:30.850Z,62.30
2019-05-19T11:57:59.571Z,61.70
2019-05-19T12:00:28.300Z,62.40
2019-05-19T12:02:57.053Z,61.80
2019-05-19T12:05:25.862Z,61.90
2019-05-19T12:07:54.581Z,62.20
2019-05-19T12:10:23.328Z,60.80
2019-05-19T12:12:52.051Z,62.00
2019-05-19T12:15:22.631Z,62.60
2019-05-19T12:17:51.369Z,61.90
2019-05-19T12:20:20.115Z,60.90
2019-05-19T12:22:48.790Z,60.40
2019-05-19T12:25:17.606Z,59.90
2019-05-19T12:27:46.361Z,60.70
2019-05-19T12:30:19.981Z,61.70
2019-05-19T12:32:48.786Z,62.00
2019-05-19T12:35:17.667Z,62.30
2019-05-19T12:37:46.411Z,63.40
2019-05-19T12:40:15.285Z,64.80
2019-05-19T12:42:43.965Z,64.30
2019-05-19T12:45:13.345Z,63.90
2019-05-19T12:47:42.195Z,63.10
2019-05-19T12:50:11.507Z,64.10
2019-05-19T12:52:40.258Z,64.50
2019-05-19T12:55:09.378Z,63.90
2019-05-19T12:57:38.733Z,63.60
2019-05-19T13:00:08.220Z,62.70
2019-05-19T13:02:38.187Z,63.10
2019-05-19T13:05:08.706Z,62.90
2019-05-19T13:07:37.505Z,62.40
2019-05-19T13:10:08.190Z,62.70
2019-05-19T13:12:36.998Z,63.90
2019-05-19T13:15:07.761Z,63.30
2019-05-19T13:17:36.638Z,63.40
2019-05-19T13:20:06.666Z,64.10
2019-05-19T13:22:35.406Z,63.80
2019-05-19T13:25:05.865Z,63.70
2019-05-19T13:27:34.599Z,62.10
2019-05-19T13:30:03.895Z,61.90
2019-05-19T13:32:32.621Z,61.00
2019-05-19T13:35:01.377Z,61.00
2019-05-19T13:37:30.182Z,60.80
2019-05-19T13:39:58.905Z,61.40
2019-05-19T13:42:27.704Z,61.10
2019-05-19T13:44:56.382Z,60.40
2019-05-19T13:47:25.127Z,60.80
2019-05-19T13:49:53.879Z,61.20
2019-05-19T13:52:22.631Z,61.50
2019-05-19T13:54:51.396Z,61.60
2019-05-19T13:57:20.091Z,61.20
2019-05-19T13:59:48.839Z,62.40
2019-05-19T14:02:17.594Z,63.70
2019-05-19T14:04:46.343Z,61.90
2019-05-19T14:07:15.193Z,61.10
2019-05-19T14:09:43.907Z,60.50
2019-05-19T14:12:12.637Z,60.50
2019-05-19T14:14:41.398Z,60.30
2019-05-19T14:17:10.144Z,60.70
2019-05-19T14:19:38.868Z,60.40
2019-05-19T14:22:07.602Z,60.20
2019-05-19T14:24:36.329Z,60.40
2019-05-19T14:27:05.012Z,60.10
2019-05-19T14:29:33.780Z,60.50
2019-05-19T14:32:02.486Z,61.20
2019-05-19T14:34:31.639Z,60.70
2019-05-19T14:37:00.302Z,60.20
2019-05-19T14:39:29.040Z,61.20
2019-05-19T14:41:59.447Z,61.60
2019-05-19T14:44:28.249Z,61.50
2019-05-19T14:46:56.965Z,61.60
2019-05-19T14:49:25.700Z,63.60
2019-05-19T14:51:54.445Z,62.90
2019-05-19T14:54:23.188Z,62.70
2019-05-19T14:56:51.945Z,62.30
2019-05-19T14:59:20.668Z,62.40
2019-05-19T15:01:49.409Z,62.80
2019-05-19T15:04:18.157Z,62.80
2019-05-19T15:06:46.881Z,62.70
2019-05-19T15:09:15.703Z,63.60
2019-05-19T15:11:44.454Z,63.90
2019-05-19T15:14:13.200Z,64.20
2019-05-19T15:16:41.961Z,63.70
2019-05-19T15:19:10.703Z,63.40
2019-05-19T15:21:39.518Z,63.70
2019-05-19T15:24:08.283Z,63.90
2019-05-19T15:26:37.066Z,64.10
2019-05-19T15:29:05.897Z,63.40
2019-05-19T15:31:34.621Z,64.70
2019-05-19T15:34:03.327Z,64.80
2019-05-19T15:36:32.082Z,65.20
2019-05-19T15:39:00.805Z,65.00
2019-05-19T15:41:29.573Z,65.00
2019-05-19T15:43:58.304Z,64.20
2019-05-19T15:46:27.032Z,64.20
2019-05-19T15:48:55.789Z,65.00
2019-05-19T15:51:28.917Z,65.40
2019-05-19T15:53:54.859Z,66.60
2019-05-19T15:56:23.622Z,66.90
2019-05-19T15:58:52.349Z,66.80
2019-05-19T16:01:21.105Z,67.50
2019-05-19T16:03:49.848Z,67.70
2019-05-19T16:06:18.619Z,68.70
2019-05-19T16:08:47.354Z,69.60
2019-05-19T16:11:16.110Z,69.30
2019-05-19T16:13:44.844Z,69.70
2019-05-19T16:16:13.569Z,69.60
2019-05-19T16:18:42.318Z,70.20
2019-05-19T16:21:11.058Z,70.70
2019-05-19T16:23:39.799Z,70.80
2019-05-19T16:26:08.525Z,71.90
2019-05-19T16:28:37.278Z,71.90
2019-05-19T16:31:06.058Z,72.10
2019-05-19T16:33:34.762Z,72.30
2019-05-19T16:36:03.518Z,72.80
2019-05-19T16:38:32.270Z,72.50
2019-05-19T16:41:01.024Z,71.40
2019-05-19T16:43:29.754Z,71.70
2019-05-19T16:45:58.513Z,72.70
2019-05-19T16:48:27.250Z,72.40
2019-05-19T16:50:55.988Z,72.10
2019-05-19T16:53:24.758Z,73.20
2019-05-19T16:55:53.503Z,73.40
2019-05-19T16:58:22.285Z,73.50
2019-05-19T17:00:51.049Z,73.50
2019-05-19T17:03:19.852Z,73.50
2019-05-19T17:05:48.514Z,73.20
2019-05-19T17:08:17.283Z,74.30
2019-05-19T17:10:46.114Z,75.00
2019-05-19T17:13:14.822Z,74.00
2019-05-19T17:15:43.613Z,73.90
2019-05-19T17:18:12.367Z,73.80
2019-05-19T17:20:41.104Z,73.60
2019-05-19T17:23:09.846Z,75.00
2019-05-19T17:25:38.573Z,78.60
2019-05-19T17:28:07.318Z,82.70
2019-05-19T17:30:36.055Z,83.60
2019-05-19T17:33:04.779Z,83.10
2019-05-19T17:35:33.563Z,83.30
2019-05-19T17:38:02.336Z,85.00
2019-05-19T17:40:31.082Z,86.70
2019-05-19T17:42:59.842Z,87.20
2019-05-19T17:45:28.601Z,88.20
2019-05-19T17:48:09.008Z,88.70
2019-05-19T17:50:32.749Z,88.90
2019-05-19T17:53:02.051Z,89.70
2019-05-19T17:55:33.515Z,89.60
2019-05-19T17:58:03.182Z,89.80
2019-05-19T18:00:44.129Z,90.10
2019-05-19T18:03:12.426Z,90.60
2019-05-19T18:05:41.261Z,88.90
2019-05-19T18:08:10.071Z,90.20
2019-05-19T18:10:38.830Z,90.40
2019-05-19T18:13:07.645Z,90.30
2019-05-19T18:15:37.196Z,88.90
2019-05-19T18:18:06.017Z,89.20
2019-05-19T18:20:35.013Z,88.70
2019-05-19T18:23:03.852Z,89.80
2019-05-19T18:25:33.086Z,89.10
2019-05-19T18:28:01.810Z,89.20
2019-05-19T18:30:30.638Z,89.60
2019-05-19T18:32:59.391Z,90.40
2019-05-19T18:35:28.150Z,90.60
2019-05-19T18:37:56.896Z,90.60
2019-05-19T18:40:25.881Z,90.30
2019-05-19T18:42:54.706Z,90.60
2019-05-19T18:45:23.681Z,90.30
2019-05-19T18:47:52.519Z,89.80
2019-05-19T18:50:21.321Z,89.70
2019-05-19T18:52:50.095Z,90.10
2019-05-19T18:55:18.854Z,90.30
2019-05-19T18:57:47.595Z,88.80
2019-05-19T19:00:22.121Z,89.20
2019-05-19T19:02:50.945Z,89.30
2019-05-19T19:05:19.741Z,89.00
2019-05-19T19:07:50.150Z,89.80
2019-05-19T19:10:18.897Z,90.00
2019-05-19T19:12:48.122Z,90.70
2019-05-19T19:15:17.193Z,90.30
2019-05-19T19:17:45.883Z,88.90
2019-05-19T19:20:15.603Z,88.30
2019-05-19T19:22:44.334Z,88.10
2019-05-19T19:25:13.622Z,88.60
2019-05-19T19:27:42.369Z,88.90
2019-05-19T19:30:11.539Z,89.20
2019-05-19T19:32:40.285Z,90.20
2019-05-19T19:35:09.901Z,89.20
2019-05-19T19:37:38.628Z,88.30
2019-05-19T19:40:08.317Z,88.60
2019-05-19T19:42:37.143Z,88.00
2019-05-19T19:45:06.268Z,88.70
2019-05-19T19:47:35.025Z,88.90
2019-05-19T19:50:07.873Z,88.60
2019-05-19T19:52:36.537Z,89.40
2019-05-19T19:55:06.038Z,89.70
2019-05-19T19:57:34.774Z,89.80
2019-05-19T20:00:17.353Z,88.60
2019-05-19T20:02:34.832Z,88.50
2019-05-19T20:05:03.739Z,89.00
2019-05-19T20:07:32.473Z,89.60
2019-05-19T20:10:01.235Z,90.20
2019-05-19T20:12:29.990Z,90.40
2019-05-19T20:14:58.739Z,90.40
2019-05-19T20:17:27.482Z,90.40
2019-05-19T20:19:56.237Z,90.40
2019-05-19T20:22:24.963Z,89.80
2019-05-19T20:24:53.725Z,88.90
2019-05-19T20:27:22.465Z,89.00
2019-05-19T20:29:51.192Z,89.20
2019-05-19T20:32:19.955Z,89.50
2019-05-19T20:34:48.740Z,89.90
2019-05-19T20:37:17.429Z,89.80
2019-05-19T20:39:46.195Z,89.90
2019-05-19T20:42:15.009Z,89.90
2019-05-19T20:44:43.786Z,90.00
2019-05-19T20:47:12.517Z,90.10
2019-05-19T20:49:41.297Z,90.00
2019-05-19T20:52:10.038Z,89.80
2019-05-19T20:54:38.773Z,89.30
2019-05-19T20:57:07.549Z,89.40
2019-05-19T20:59:36.276Z,88.90
2019-05-19T21:02:05.044Z,89.00
2019-05-19T21:04:33.781Z,89.30
2019-05-19T21:07:02.513Z,88.90
2019-05-19T21:09:31.329Z,88.60
2019-05-19T21:12:00.062Z,89.00
2019-05-19T21:14:28.862Z,89.60
2019-05-19T21:16:57.566Z,90.30
2019-05-19T21:19:26.292Z,90.30
2019-05-19T21:21:55.018Z,90.40
2019-05-19T21:24:23.788Z,89.30
2019-05-19T21:26:52.525Z,88.80
2019-05-19T21:29:21.254Z,88.80
2019-05-19T21:31:50.014Z,89.00
2019-05-19T21:34:18.693Z,89.10
2019-05-19T21:36:47.491Z,89.20
2019-05-19T21:39:16.182Z,89.00
2019-05-19T21:41:44.840Z,88.90
2019-05-19T21:44:13.601Z,89.80
2019-05-19T21:46:42.333Z,89.10
2019-05-19T21:49:11.073Z,88.60
2019-05-19T21:51:39.821Z,89.40
2019-05-19T21:54:08.508Z,89.50
2019-05-19T21:56:37.258Z,89.70
2019-05-19T21:59:05.990Z,90.00
2019-05-19T22:01:34.714Z,89.40
2019-05-19T22:04:03.557Z,88.70
2019-05-19T22:06:33.913Z,89.10
2019-05-19T22:09:02.717Z,89.70
2019-05-19T22:11:31.540Z,89.50
2019-05-19T22:14:00.311Z,90.10
2019-05-19T22:16:29.031Z,90.20
2019-05-19T22:18:57.774Z,89.90
2019-05-19T22:21:26.518Z,90.10
2019-05-19T22:23:55.261Z,90.30
2019-05-19T22:26:24.043Z,90.90
2019-05-19T22:28:52.830Z,90.50
2019-05-19T22:31:21.589Z,90.50
2019-05-19T22:33:50.341Z,90.50
2019-05-19T22:36:19.074Z,90.80
2019-05-19T22:38:47.795Z,90.80
2019-05-19T22:41:16.577Z,90.50
2019-05-19T22:43:45.325Z,90.60
2019-05-19T22:46:14.090Z,90.80
2019-05-19T22:48:45.694Z,90.50
2019-05-19T22:51:14.345Z,90.40
2019-05-19T22:53:43.106Z,90.80
2019-05-19T22:56:11.877Z,90.60
2019-05-19T22:58:41.665Z,90.60
2019-05-19T23:01:10.542Z,91.00
2019-05-19T23:03:39.301Z,91.00
2019-05-19T23:06:08.222Z,91.40
2019-05-19T23:08:37.142Z,91.30
2019-05-19T23:11:05.925Z,90.90
2019-05-19T23:13:34.681Z,90.50
2019-05-19T23:16:03.473Z,90.90
2019-05-19T23:18:32.204Z,91.00
2019-05-19T23:21:00.978Z,91.10
2019-05-19T23:23:29.750Z,90.70
2019-05-19T23:25:58.478Z,90.70
2019-05-19T23:28:27.245Z,90.90
2019-05-19T23:30:55.905Z,91.00
2019-05-19T23:33:24.649Z,91.10
2019-05-19T23:35:53.316Z,91.20
2019-05-19T23:38:22.072Z,90.80
2019-05-19T23:40:50.830Z,91.20
2019-05-19T23:43:19.565Z,91.10
2019-05-19T23:45:48.245Z,91.00
2019-05-19T23:48:16.974Z,91.20
2019-05-19T23:50:45.749Z,90.90
2019-05-19T23:53:14.497Z,90.60
2019-05-19T23:55:45.010Z,90.90
2019-05-19T23:58:13.713Z,91.40
